sensor_id;sensor_type;location;lat;lon;timestamp;P1;durP1;ratioP1;P2;durP2;ratioP2
26578;SDS011;14227;47.674;19.320;2023-05-07T00:07:06;95.15;;;50.03;;
26578;SDS011;14227;47.674;19.320;2023-05-07T00:09:32;76.00;;;44.38;;
26578;SDS011;14227;47.674;19.320;2023-05-07T00:11:58;72.40;;;41.85;;
26578;SDS011;14227;47.674;19.320;2023-05-07T00:14:25;91.28;;;51.13;;
26578;SDS011;14227;47.674;19.320;2023-05-07T00:23:25;81.57;;;44.80;;
26578;SDS011;14227;47.674;19.320;2023-05-07T00:25:51;90.45;;;50.55;;
26578;SDS011;14227;47.674;19.320;2023-05-07T00:41:27;121.32;;;59.80;;
26578;SDS011;14227;47.674;19.320;2023-05-07T00:57:14;90.60;;;50.45;;
26578;SDS011;14227;47.674;19.320;2023-05-07T05:50:41;63.72;;;43.20;;
26578;SDS011;14227;47.674;19.320;2023-05-07T05:53:07;56.55;;;40.53;;
26578;SDS011;14227;47.674;19.320;2023-05-07T05:55:33;54.63;;;40.00;;
26578;SDS011;14227;47.674;19.320;2023-05-07T05:58:19;41.97;;;33.65;;
26578;SDS011;14227;47.674;19.320;2023-05-07T06:04:15;29.65;;;22.58;;
26578;SDS011;14227;47.674;19.320;2023-05-07T06:10:04;23.95;;;16.95;;
26578;SDS011;14227;47.674;19.320;2023-05-07T06:12:31;25.65;;;19.75;;
26578;SDS011;14227;47.674;19.320;2023-05-07T06:14:57;20.02;;;16.90;;
26578;SDS011;14227;47.674;19.320;2023-05-07T06:17:22;21.42;;;17.15;;
26578;SDS011;14227;47.674;19.320;2023-05-07T06:19:48;20.67;;;17.13;;
26578;SDS011;14227;47.674;19.320;2023-05-07T06:22:13;19.73;;;16.08;;
26578;SDS011;14227;47.674;19.320;2023-05-07T06:24:40;23.35;;;20.15;;
26578;SDS011;14227;47.674;19.320;2023-05-07T06:27:05;28.38;;;21.42;;
26578;SDS011;14227;47.674;19.320;2023-05-07T06:29:31;17.40;;;14.25;;
26578;SDS011;14227;47.674;19.320;2023-05-07T06:32:07;16.30;;;12.82;;
26578;SDS011;14227;47.674;19.320;2023-05-07T06:34:34;13.05;;;11.15;;
26578;SDS011;14227;47.674;19.320;2023-05-07T06:37:00;14.13;;;11.77;;
26578;SDS011;14227;47.674;19.320;2023-05-07T06:39:26;13.20;;;11.38;;
26578;SDS011;14227;47.674;19.320;2023-05-07T06:41:52;10.50;;;9.40;;
26578;SDS011;14227;47.674;19.320;2023-05-07T06:44:18;11.57;;;9.25;;
26578;SDS011;14227;47.674;19.320;2023-05-07T06:46:44;11.35;;;8.60;;
26578;SDS011;14227;47.674;19.320;2023-05-07T06:49:10;9.48;;;6.32;;
26578;SDS011;14227;47.674;19.320;2023-05-07T06:51:37;9.48;;;8.07;;
26578;SDS011;14227;47.674;19.320;2023-05-07T06:54:03;12.40;;;7.35;;
26578;SDS011;14227;47.674;19.320;2023-05-07T06:56:29;11.15;;;6.63;;
26578;SDS011;14227;47.674;19.320;2023-05-07T06:58:55;10.05;;;6.35;;
26578;SDS011;14227;47.674;19.320;2023-05-07T07:01:21;7.50;;;6.80;;
26578;SDS011;14227;47.674;19.320;2023-05-07T07:03:47;6.85;;;6.10;;
26578;SDS011;14227;47.674;19.320;2023-05-07T07:06:13;8.88;;;5.95;;
26578;SDS011;14227;47.674;19.320;2023-05-07T07:08:39;7.07;;;5.60;;
26578;SDS011;14227;47.674;19.320;2023-05-07T07:11:05;4.90;;;4.45;;
26578;SDS011;14227;47.674;19.320;2023-05-07T07:13:31;4.28;;;3.55;;
26578;SDS011;14227;47.674;19.320;2023-05-07T07:15:57;8.50;;;2.88;;
26578;SDS011;14227;47.674;19.320;2023-05-07T07:18:23;7.38;;;2.05;;
26578;SDS011;14227;47.674;19.320;2023-05-07T07:20:48;2.60;;;2.38;;
26578;SDS011;14227;47.674;19.320;2023-05-07T07:23:14;2.85;;;2.60;;
26578;SDS011;14227;47.674;19.320;2023-05-07T07:25:40;2.30;;;1.52;;
26578;SDS011;14227;47.674;19.320;2023-05-07T07:28:06;2.20;;;2.00;;
26578;SDS011;14227;47.674;19.320;2023-05-07T07:30:31;1.92;;;1.83;;
26578;SDS011;14227;47.674;19.320;2023-05-07T07:32:57;2.67;;;2.22;;
26578;SDS011;14227;47.674;19.320;2023-05-07T07:35:27;3.20;;;2.50;;
26578;SDS011;14227;47.674;19.320;2023-05-07T07:37:57;3.08;;;2.15;;
26578;SDS011;14227;47.674;19.320;2023-05-07T07:40:23;2.50;;;1.85;;
26578;SDS011;14227;47.674;19.320;2023-05-07T07:42:50;2.53;;;2.33;;
26578;SDS011;14227;47.674;19.320;2023-05-07T07:45:19;2.30;;;2.10;;
26578;SDS011;14227;47.674;19.320;2023-05-07T07:47:45;2.28;;;2.08;;
26578;SDS011;14227;47.674;19.320;2023-05-07T07:50:11;6.28;;;2.55;;
26578;SDS011;14227;47.674;19.320;2023-05-07T07:52:36;2.30;;;2.10;;
26578;SDS011;14227;47.674;19.320;2023-05-07T07:55:02;5.10;;;1.90;;
26578;SDS011;14227;47.674;19.320;2023-05-07T07:57:29;2.67;;;1.75;;
26578;SDS011;14227;47.674;19.320;2023-05-07T07:59:55;5.00;;;2.28;;
26578;SDS011;14227;47.674;19.320;2023-05-07T08:02:21;2.25;;;1.80;;
26578;SDS011;14227;47.674;19.320;2023-05-07T08:04:47;3.75;;;1.90;;
26578;SDS011;14227;47.674;19.320;2023-05-07T08:07:12;3.05;;;1.80;;
26578;SDS011;14227;47.674;19.320;2023-05-07T08:09:38;2.70;;;1.63;;
26578;SDS011;14227;47.674;19.320;2023-05-07T08:12:06;2.33;;;1.83;;
26578;SDS011;14227;47.674;19.320;2023-05-07T08:14:32;3.83;;;1.60;;
26578;SDS011;14227;47.674;19.320;2023-05-07T08:16:58;2.88;;;1.83;;
26578;SDS011;14227;47.674;19.320;2023-05-07T08:19:24;2.17;;;1.90;;
26578;SDS011;14227;47.674;19.320;2023-05-07T08:21:50;2.50;;;2.10;;
26578;SDS011;14227;47.674;19.320;2023-05-07T08:24:16;2.92;;;2.10;;
26578;SDS011;14227;47.674;19.320;2023-05-07T08:26:44;5.50;;;2.38;;
26578;SDS011;14227;47.674;19.320;2023-05-07T08:29:10;1.85;;;1.40;;
26578;SDS011;14227;47.674;19.320;2023-05-07T08:31:36;1.83;;;1.60;;
26578;SDS011;14227;47.674;19.320;2023-05-07T08:34:03;1.83;;;1.65;;
26578;SDS011;14227;47.674;19.320;2023-05-07T08:36:29;2.55;;;1.60;;
26578;SDS011;14227;47.674;19.320;2023-05-07T08:38:55;2.25;;;1.90;;
26578;SDS011;14227;47.674;19.320;2023-05-07T08:41:21;2.05;;;1.85;;
26578;SDS011;14227;47.674;19.320;2023-05-07T08:43:47;2.85;;;1.77;;
26578;SDS011;14227;47.674;19.320;2023-05-07T08:46:18;2.22;;;1.77;;
26578;SDS011;14227;47.674;19.320;2023-05-07T08:48:49;3.88;;;1.58;;
26578;SDS011;14227;47.674;19.320;2023-05-07T08:51:16;4.28;;;1.55;;
26578;SDS011;14227;47.674;19.320;2023-05-07T08:53:43;2.85;;;1.65;;
26578;SDS011;14227;47.674;19.320;2023-05-07T08:56:10;5.10;;;1.55;;
26578;SDS011;14227;47.674;19.320;2023-05-07T08:58:36;4.03;;;1.77;;
26578;SDS011;14227;47.674;19.320;2023-05-07T09:01:03;2.33;;;1.80;;
26578;SDS011;14227;47.674;19.320;2023-05-07T09:03:38;1.95;;;1.75;;
26578;SDS011;14227;47.674;19.320;2023-05-07T09:06:04;1.80;;;1.60;;
26578;SDS011;14227;47.674;19.320;2023-05-07T09:08:31;1.63;;;1.52;;
26578;SDS011;14227;47.674;19.320;2023-05-07T09:10:58;2.25;;;1.80;;
26578;SDS011;14227;47.674;19.320;2023-05-07T09:13:24;6.80;;;2.10;;
26578;SDS011;14227;47.674;19.320;2023-05-07T09:15:50;8.00;;;2.00;;
26578;SDS011;14227;47.674;19.320;2023-05-07T09:18:16;3.17;;;1.60;;
26578;SDS011;14227;47.674;19.320;2023-05-07T09:20:41;4.20;;;1.80;;
26578;SDS011;14227;47.674;19.320;2023-05-07T09:23:07;5.47;;;2.10;;
26578;SDS011;14227;47.674;19.320;2023-05-07T09:25:34;2.78;;;1.73;;
26578;SDS011;14227;47.674;19.320;2023-05-07T09:28:01;8.45;;;1.88;;
26578;SDS011;14227;47.674;19.320;2023-05-07T09:30:28;2.20;;;1.65;;
26578;SDS011;14227;47.674;19.320;2023-05-07T09:32:57;2.30;;;2.10;;
26578;SDS011;14227;47.674;19.320;2023-05-07T09:35:24;3.60;;;2.00;;
26578;SDS011;14227;47.674;19.320;2023-05-07T09:37:55;1.80;;;1.70;;
26578;SDS011;14227;47.674;19.320;2023-05-07T09:40:23;1.67;;;1.58;;
26578;SDS011;14227;47.674;19.320;2023-05-07T09:42:51;4.18;;;1.98;;
26578;SDS011;14227;47.674;19.320;2023-05-07T09:45:27;2.55;;;1.60;;
26578;SDS011;14227;47.674;19.320;2023-05-07T09:47:54;2.33;;;1.73;;
26578;SDS011;14227;47.674;19.320;2023-05-07T09:50:32;1.75;;;1.65;;
26578;SDS011;14227;47.674;19.320;2023-05-07T09:53:05;5.63;;;1.92;;
26578;SDS011;14227;47.674;19.320;2023-05-07T09:55:31;5.68;;;2.00;;
26578;SDS011;14227;47.674;19.320;2023-05-07T09:57:57;3.03;;;1.50;;
26578;SDS011;14227;47.674;19.320;2023-05-07T10:00:24;2.17;;;1.80;;
26578;SDS011;14227;47.674;19.320;2023-05-07T10:02:52;4.90;;;1.80;;
26578;SDS011;14227;47.674;19.320;2023-05-07T10:05:19;5.20;;;1.88;;
26578;SDS011;14227;47.674;19.320;2023-05-07T10:07:47;1.75;;;1.65;;
26578;SDS011;14227;47.674;19.320;2023-05-07T10:10:14;2.00;;;1.80;;
26578;SDS011;14227;47.674;19.320;2023-05-07T10:12:41;2.00;;;1.60;;
26578;SDS011;14227;47.674;19.320;2023-05-07T10:15:09;3.58;;;2.00;;
26578;SDS011;14227;47.674;19.320;2023-05-07T10:17:36;2.28;;;1.80;;
26578;SDS011;14227;47.674;19.320;2023-05-07T10:20:03;2.13;;;1.92;;
26578;SDS011;14227;47.674;19.320;2023-05-07T10:22:31;2.97;;;2.78;;
26578;SDS011;14227;47.674;19.320;2023-05-07T10:25:03;3.05;;;2.20;;
26578;SDS011;14227;47.674;19.320;2023-05-07T10:27:39;3.05;;;1.90;;
26578;SDS011;14227;47.674;19.320;2023-05-07T10:32:47;2.95;;;1.60;;
26578;SDS011;14227;47.674;19.320;2023-05-07T10:35:58;2.83;;;1.40;;
26578;SDS011;14227;47.674;19.320;2023-05-07T10:38:08;2.65;;;1.60;;
26578;SDS011;14227;47.674;19.320;2023-05-07T10:40:35;1.95;;;1.45;;
26578;SDS011;14227;47.674;19.320;2023-05-07T10:43:02;1.15;;;1.08;;
26578;SDS011;14227;47.674;19.320;2023-05-07T10:45:31;3.08;;;1.10;;
26578;SDS011;14227;47.674;19.320;2023-05-07T10:50:34;0.90;;;0.90;;
26578;SDS011;14227;47.674;19.320;2023-05-07T10:55:41;1.10;;;0.90;;
26578;SDS011;14227;47.674;19.320;2023-05-07T10:58:24;0.85;;;0.85;;
26578;SDS011;14227;47.674;19.320;2023-05-07T11:01:11;1.90;;;1.05;;
26578;SDS011;14227;47.674;19.320;2023-05-07T11:04:12;1.58;;;1.17;;
26578;SDS011;14227;47.674;19.320;2023-05-07T11:06:40;3.03;;;1.00;;
26578;SDS011;14227;47.674;19.320;2023-05-07T11:09:06;2.20;;;1.00;;
26578;SDS011;14227;47.674;19.320;2023-05-07T11:11:48;1.35;;;1.13;;
26578;SDS011;14227;47.674;19.320;2023-05-07T11:17:18;1.20;;;1.10;;
26578;SDS011;14227;47.674;19.320;2023-05-07T11:19:48;1.52;;;1.30;;
26578;SDS011;14227;47.674;19.320;2023-05-07T11:25:03;1.80;;;1.23;;
26578;SDS011;14227;47.674;19.320;2023-05-07T11:27:30;2.00;;;1.15;;
26578;SDS011;14227;47.674;19.320;2023-05-07T11:29:57;2.42;;;1.40;;
26578;SDS011;14227;47.674;19.320;2023-05-07T11:32:23;1.50;;;1.40;;
26578;SDS011;14227;47.674;19.320;2023-05-07T11:34:56;1.42;;;1.30;;
26578;SDS011;14227;47.674;19.320;2023-05-07T11:37:26;2.28;;;1.98;;
26578;SDS011;14227;47.674;19.320;2023-05-07T11:40:07;4.05;;;1.80;;
26578;SDS011;14227;47.674;19.320;2023-05-07T11:42:36;2.15;;;1.95;;
26578;SDS011;14227;47.674;19.320;2023-05-07T11:45:03;2.17;;;1.73;;
26578;SDS011;14227;47.674;19.320;2023-05-07T11:47:30;5.25;;;1.95;;
26578;SDS011;14227;47.674;19.320;2023-05-07T11:49:57;1.88;;;1.75;;
26578;SDS011;14227;47.674;19.320;2023-05-07T11:52:31;7.85;;;1.90;;
26578;SDS011;14227;47.674;19.320;2023-05-07T11:54:58;1.90;;;1.60;;
26578;SDS011;14227;47.674;19.320;2023-05-07T11:57:25;2.53;;;1.88;;
26578;SDS011;14227;47.674;19.320;2023-05-07T12:02:20;5.10;;;2.08;;
26578;SDS011;14227;47.674;19.320;2023-05-07T12:04:46;2.38;;;2.05;;
26578;SDS011;14227;47.674;19.320;2023-05-07T12:07:13;3.17;;;1.88;;
26578;SDS011;14227;47.674;19.320;2023-05-07T12:09:40;3.40;;;1.95;;
26578;SDS011;14227;47.674;19.320;2023-05-07T12:12:06;2.63;;;1.95;;
26578;SDS011;14227;47.674;19.320;2023-05-07T12:14:32;3.17;;;1.92;;
26578;SDS011;14227;47.674;19.320;2023-05-07T12:16:58;3.80;;;2.10;;
26578;SDS011;14227;47.674;19.320;2023-05-07T12:19:28;2.97;;;1.90;;
26578;SDS011;14227;47.674;19.320;2023-05-07T12:21:55;4.05;;;2.50;;
26578;SDS011;14227;47.674;19.320;2023-05-07T12:24:21;4.75;;;2.45;;
26578;SDS011;14227;47.674;19.320;2023-05-07T12:26:47;2.28;;;2.08;;
26578;SDS011;14227;47.674;19.320;2023-05-07T12:29:13;3.22;;;2.38;;
26578;SDS011;14227;47.674;19.320;2023-05-07T12:31:42;2.55;;;2.20;;
26578;SDS011;14227;47.674;19.320;2023-05-07T12:34:10;2.22;;;2.03;;
26578;SDS011;14227;47.674;19.320;2023-05-07T12:36:37;4.40;;;2.45;;
26578;SDS011;14227;47.674;19.320;2023-05-07T12:39:04;5.07;;;2.25;;
26578;SDS011;14227;47.674;19.320;2023-05-07T12:41:34;2.83;;;2.10;;
26578;SDS011;14227;47.674;19.320;2023-05-07T12:44:16;3.42;;;2.20;;
26578;SDS011;14227;47.674;19.320;2023-05-07T12:46:42;1.98;;;1.75;;
26578;SDS011;14227;47.674;19.320;2023-05-07T12:49:08;3.67;;;2.33;;
26578;SDS011;14227;47.674;19.320;2023-05-07T12:51:34;5.78;;;2.00;;
26578;SDS011;14227;47.674;19.320;2023-05-07T12:54:00;4.57;;;2.00;;
26578;SDS011;14227;47.674;19.320;2023-05-07T12:56:26;3.00;;;1.85;;
26578;SDS011;14227;47.674;19.320;2023-05-07T12:58:52;3.05;;;1.90;;
26578;SDS011;14227;47.674;19.320;2023-05-07T13:01:28;4.10;;;1.85;;
26578;SDS011;14227;47.674;19.320;2023-05-07T13:04:03;3.80;;;1.90;;
26578;SDS011;14227;47.674;19.320;2023-05-07T13:06:29;4.28;;;1.90;;
26578;SDS011;14227;47.674;19.320;2023-05-07T13:08:56;2.53;;;1.63;;
26578;SDS011;14227;47.674;19.320;2023-05-07T13:11:21;4.07;;;1.52;;
26578;SDS011;14227;47.674;19.320;2023-05-07T13:13:48;5.60;;;1.75;;
26578;SDS011;14227;47.674;19.320;2023-05-07T13:16:13;3.88;;;1.80;;
26578;SDS011;14227;47.674;19.320;2023-05-07T13:18:39;4.13;;;1.70;;
26578;SDS011;14227;47.674;19.320;2023-05-07T13:21:05;3.97;;;1.80;;
26578;SDS011;14227;47.674;19.320;2023-05-07T13:23:31;3.45;;;3.15;;
26578;SDS011;14227;47.674;19.320;2023-05-07T13:25:57;3.20;;;2.38;;
26578;SDS011;14227;47.674;19.320;2023-05-07T13:28:23;4.53;;;2.53;;
26578;SDS011;14227;47.674;19.320;2023-05-07T13:30:49;2.53;;;2.33;;
26578;SDS011;14227;47.674;19.320;2023-05-07T13:33:16;2.80;;;2.60;;
26578;SDS011;14227;47.674;19.320;2023-05-07T13:35:43;3.35;;;2.60;;
26578;SDS011;14227;47.674;19.320;2023-05-07T13:38:09;2.75;;;2.25;;
26578;SDS011;14227;47.674;19.320;2023-05-07T13:40:35;15.07;;;3.22;;
26578;SDS011;14227;47.674;19.320;2023-05-07T13:43:00;3.40;;;1.92;;
26578;SDS011;14227;47.674;19.320;2023-05-07T13:45:29;2.47;;;2.10;;
26578;SDS011;14227;47.674;19.320;2023-05-07T13:47:55;6.10;;;2.30;;
26578;SDS011;14227;47.674;19.320;2023-05-07T13:50:21;5.18;;;2.20;;
26578;SDS011;14227;47.674;19.320;2023-05-07T13:52:47;3.05;;;2.10;;
26578;SDS011;14227;47.674;19.320;2023-05-07T13:55:17;3.03;;;2.30;;
26578;SDS011;14227;47.674;19.320;2023-05-07T13:57:43;2.42;;;2.13;;
26578;SDS011;14227;47.674;19.320;2023-05-07T14:00:09;3.90;;;2.33;;
26578;SDS011;14227;47.674;19.320;2023-05-07T14:02:36;3.85;;;2.08;;
26578;SDS011;14227;47.674;19.320;2023-05-07T14:05:02;3.65;;;2.13;;
26578;SDS011;14227;47.674;19.320;2023-05-07T14:07:28;3.80;;;1.98;;
26578;SDS011;14227;47.674;19.320;2023-05-07T14:09:54;2.20;;;2.00;;
26578;SDS011;14227;47.674;19.320;2023-05-07T14:12:20;4.43;;;2.20;;
26578;SDS011;14227;47.674;19.320;2023-05-07T14:14:45;3.03;;;2.20;;
26578;SDS011;14227;47.674;19.320;2023-05-07T14:17:12;6.85;;;2.30;;
26578;SDS011;14227;47.674;19.320;2023-05-07T14:19:38;3.35;;;2.50;;
26578;SDS011;14227;47.674;19.320;2023-05-07T14:22:03;6.28;;;2.53;;
26578;SDS011;14227;47.674;19.320;2023-05-07T14:24:29;3.83;;;2.20;;
26578;SDS011;14227;47.674;19.320;2023-05-07T14:26:55;2.95;;;2.53;;
26578;SDS011;14227;47.674;19.320;2023-05-07T14:29:21;3.97;;;2.13;;
26578;SDS011;14227;47.674;19.320;2023-05-07T14:31:47;3.58;;;2.30;;
26578;SDS011;14227;47.674;19.320;2023-05-07T14:34:13;9.35;;;2.58;;
26578;SDS011;14227;47.674;19.320;2023-05-07T14:36:39;3.33;;;2.40;;
26578;SDS011;14227;47.674;19.320;2023-05-07T14:39:05;7.60;;;2.47;;
26578;SDS011;14227;47.674;19.320;2023-05-07T14:41:31;3.63;;;2.40;;
26578;SDS011;14227;47.674;19.320;2023-05-07T14:43:58;3.85;;;2.35;;
26578;SDS011;14227;47.674;19.320;2023-05-07T14:46:23;5.97;;;2.63;;
26578;SDS011;14227;47.674;19.320;2023-05-07T14:48:49;2.45;;;2.25;;
26578;SDS011;14227;47.674;19.320;2023-05-07T14:51:15;4.47;;;2.53;;
26578;SDS011;14227;47.674;19.320;2023-05-07T14:53:41;5.18;;;2.60;;
26578;SDS011;14227;47.674;19.320;2023-05-07T14:56:07;4.90;;;2.40;;
26578;SDS011;14227;47.674;19.320;2023-05-07T14:58:33;2.47;;;2.25;;
26578;SDS011;14227;47.674;19.320;2023-05-07T15:00:59;4.20;;;1.85;;
26578;SDS011;14227;47.674;19.320;2023-05-07T15:03:25;3.47;;;2.10;;
26578;SDS011;14227;47.674;19.320;2023-05-07T15:05:52;4.45;;;2.20;;
26578;SDS011;14227;47.674;19.320;2023-05-07T15:08:17;4.18;;;2.30;;
26578;SDS011;14227;47.674;19.320;2023-05-07T15:10:43;10.70;;;2.38;;
26578;SDS011;14227;47.674;19.320;2023-05-07T15:13:09;2.30;;;2.10;;
26578;SDS011;14227;47.674;19.320;2023-05-07T15:15:36;6.50;;;2.25;;
26578;SDS011;14227;47.674;19.320;2023-05-07T15:18:02;2.50;;;2.28;;
26578;SDS011;14227;47.674;19.320;2023-05-07T15:20:28;5.53;;;2.20;;
26578;SDS011;14227;47.674;19.320;2023-05-07T15:22:54;2.78;;;2.53;;
26578;SDS011;14227;47.674;19.320;2023-05-07T15:25:21;4.03;;;2.20;;
26578;SDS011;14227;47.674;19.320;2023-05-07T15:27:47;5.38;;;3.00;;
26578;SDS011;14227;47.674;19.320;2023-05-07T15:30:13;3.97;;;2.72;;
26578;SDS011;14227;47.674;19.320;2023-05-07T15:32:39;5.70;;;2.70;;
26578;SDS011;14227;47.674;19.320;2023-05-07T15:35:06;5.57;;;2.58;;
26578;SDS011;14227;47.674;19.320;2023-05-07T15:37:32;5.55;;;2.70;;
26578;SDS011;14227;47.674;19.320;2023-05-07T15:39:58;7.13;;;2.42;;
26578;SDS011;14227;47.674;19.320;2023-05-07T15:42:24;5.78;;;2.30;;
26578;SDS011;14227;47.674;19.320;2023-05-07T15:44:50;3.05;;;2.30;;
26578;SDS011;14227;47.674;19.320;2023-05-07T15:47:15;7.55;;;2.67;;
26578;SDS011;14227;47.674;19.320;2023-05-07T15:49:41;4.63;;;2.50;;
26578;SDS011;14227;47.674;19.320;2023-05-07T15:52:07;5.30;;;2.38;;
26578;SDS011;14227;47.674;19.320;2023-05-07T15:54:38;4.35;;;2.42;;
26578;SDS011;14227;47.674;19.320;2023-05-07T15:57:04;3.00;;;2.55;;
26578;SDS011;14227;47.674;19.320;2023-05-07T15:59:31;3.40;;;2.70;;
26578;SDS011;14227;47.674;19.320;2023-05-07T16:01:58;9.43;;;3.13;;
26578;SDS011;14227;47.674;19.320;2023-05-07T16:04:24;4.55;;;3.28;;
26578;SDS011;14227;47.674;19.320;2023-05-07T16:06:49;5.85;;;2.97;;
26578;SDS011;14227;47.674;19.320;2023-05-07T16:09:16;6.35;;;2.90;;
26578;SDS011;14227;47.674;19.320;2023-05-07T16:11:42;7.38;;;3.08;;
26578;SDS011;14227;47.674;19.320;2023-05-07T16:14:07;3.78;;;3.08;;
26578;SDS011;14227;47.674;19.320;2023-05-07T16:16:34;3.15;;;2.85;;
26578;SDS011;14227;47.674;19.320;2023-05-07T16:19:00;7.57;;;3.10;;
26578;SDS011;14227;47.674;19.320;2023-05-07T16:21:26;4.95;;;3.50;;
26578;SDS011;14227;47.674;19.320;2023-05-07T16:23:51;7.35;;;3.85;;
26578;SDS011;14227;47.674;19.320;2023-05-07T16:26:17;7.10;;;3.85;;
26578;SDS011;14227;47.674;19.320;2023-05-07T16:28:43;3.72;;;3.42;;
26578;SDS011;14227;47.674;19.320;2023-05-07T16:31:09;3.72;;;3.10;;
26578;SDS011;14227;47.674;19.320;2023-05-07T16:33:35;4.82;;;3.53;;
26578;SDS011;14227;47.674;19.320;2023-05-07T16:36:01;12.20;;;3.70;;
26578;SDS011;14227;47.674;19.320;2023-05-07T16:38:27;4.13;;;3.50;;
26578;SDS011;14227;47.674;19.320;2023-05-07T16:40:57;5.57;;;3.30;;
26578;SDS011;14227;47.674;19.320;2023-05-07T16:43:23;6.95;;;3.35;;
26578;SDS011;14227;47.674;19.320;2023-05-07T16:45:49;7.72;;;3.47;;
26578;SDS011;14227;47.674;19.320;2023-05-07T16:48:16;6.18;;;3.60;;
26578;SDS011;14227;47.674;19.320;2023-05-07T16:50:41;5.57;;;3.65;;
26578;SDS011;14227;47.674;19.320;2023-05-07T16:53:08;3.72;;;3.15;;
26578;SDS011;14227;47.674;19.320;2023-05-07T16:55:38;11.65;;;4.53;;
26578;SDS011;14227;47.674;19.320;2023-05-07T16:58:05;6.97;;;3.40;;
26578;SDS011;14227;47.674;19.320;2023-05-07T17:00:31;9.90;;;3.60;;
26578;SDS011;14227;47.674;19.320;2023-05-07T17:02:57;5.43;;;3.03;;
26578;SDS011;14227;47.674;19.320;2023-05-07T17:05:23;4.95;;;3.10;;
26578;SDS011;14227;47.674;19.320;2023-05-07T17:07:49;6.53;;;3.10;;
26578;SDS011;14227;47.674;19.320;2023-05-07T17:10:15;4.53;;;3.15;;
26578;SDS011;14227;47.674;19.320;2023-05-07T17:12:41;5.00;;;2.80;;
26578;SDS011;14227;47.674;19.320;2023-05-07T17:15:07;9.88;;;3.00;;
26578;SDS011;14227;47.674;19.320;2023-05-07T17:17:34;7.65;;;3.95;;
26578;SDS011;14227;47.674;19.320;2023-05-07T17:19:59;7.57;;;4.05;;
26578;SDS011;14227;47.674;19.320;2023-05-07T17:22:25;7.45;;;3.30;;
26578;SDS011;14227;47.674;19.320;2023-05-07T17:24:51;7.63;;;3.40;;
26578;SDS011;14227;47.674;19.320;2023-05-07T17:27:17;6.00;;;3.33;;
26578;SDS011;14227;47.674;19.320;2023-05-07T17:29:43;6.68;;;3.03;;
26578;SDS011;14227;47.674;19.320;2023-05-07T17:32:08;3.58;;;3.05;;
26578;SDS011;14227;47.674;19.320;2023-05-07T17:34:34;7.93;;;2.75;;
26578;SDS011;14227;47.674;19.320;2023-05-07T17:37:01;9.35;;;3.65;;
26578;SDS011;14227;47.674;19.320;2023-05-07T17:39:26;6.97;;;3.22;;
26578;SDS011;14227;47.674;19.320;2023-05-07T17:41:52;5.30;;;3.22;;
26578;SDS011;14227;47.674;19.320;2023-05-07T17:44:18;10.55;;;3.08;;
26578;SDS011;14227;47.674;19.320;2023-05-07T17:46:45;5.88;;;3.10;;
26578;SDS011;14227;47.674;19.320;2023-05-07T17:49:10;9.63;;;2.97;;
26578;SDS011;14227;47.674;19.320;2023-05-07T17:51:36;4.15;;;2.72;;
26578;SDS011;14227;47.674;19.320;2023-05-07T17:54:02;8.15;;;2.85;;
26578;SDS011;14227;47.674;19.320;2023-05-07T17:56:28;6.47;;;3.10;;
26578;SDS011;14227;47.674;19.320;2023-05-07T17:58:53;3.53;;;3.05;;
26578;SDS011;14227;47.674;19.320;2023-05-07T18:01:20;5.78;;;3.53;;
26578;SDS011;14227;47.674;19.320;2023-05-07T18:03:45;11.52;;;4.85;;
26578;SDS011;14227;47.674;19.320;2023-05-07T18:06:11;12.80;;;6.28;;
26578;SDS011;14227;47.674;19.320;2023-05-07T18:08:46;12.70;;;6.15;;
26578;SDS011;14227;47.674;19.320;2023-05-07T18:11:12;18.02;;;6.88;;
26578;SDS011;14227;47.674;19.320;2023-05-07T18:13:38;20.70;;;6.13;;
26578;SDS011;14227;47.674;19.320;2023-05-07T18:16:04;11.90;;;6.18;;
26578;SDS011;14227;47.674;19.320;2023-05-07T18:18:30;15.00;;;6.50;;
26578;SDS011;14227;47.674;19.320;2023-05-07T18:20:59;10.13;;;5.75;;
26578;SDS011;14227;47.674;19.320;2023-05-07T18:23:26;10.15;;;5.80;;
26578;SDS011;14227;47.674;19.320;2023-05-07T18:25:52;8.38;;;5.55;;
26578;SDS011;14227;47.674;19.320;2023-05-07T18:28:18;8.75;;;5.90;;
26578;SDS011;14227;47.674;19.320;2023-05-07T18:30:44;9.65;;;5.70;;
26578;SDS011;14227;47.674;19.320;2023-05-07T18:33:10;10.60;;;5.88;;
26578;SDS011;14227;47.674;19.320;2023-05-07T18:35:36;9.20;;;5.90;;
26578;SDS011;14227;47.674;19.320;2023-05-07T18:38:02;8.77;;;5.75;;
26578;SDS011;14227;47.674;19.320;2023-05-07T18:40:28;8.45;;;5.72;;
26578;SDS011;14227;47.674;19.320;2023-05-07T18:42:54;10.13;;;6.63;;
26578;SDS011;14227;47.674;19.320;2023-05-07T18:45:19;12.07;;;6.05;;
26578;SDS011;14227;47.674;19.320;2023-05-07T18:47:45;9.18;;;6.53;;
26578;SDS011;14227;47.674;19.320;2023-05-07T18:50:11;11.30;;;6.13;;
26578;SDS011;14227;47.674;19.320;2023-05-07T18:52:37;6.20;;;4.95;;
26578;SDS011;14227;47.674;19.320;2023-05-07T18:55:04;6.70;;;5.13;;
26578;SDS011;14227;47.674;19.320;2023-05-07T18:57:30;6.63;;;4.97;;
26578;SDS011;14227;47.674;19.320;2023-05-07T18:59:56;9.32;;;5.03;;
26578;SDS011;14227;47.674;19.320;2023-05-07T19:02:22;10.13;;;6.00;;
26578;SDS011;14227;47.674;19.320;2023-05-07T19:04:47;8.52;;;5.45;;
26578;SDS011;14227;47.674;19.320;2023-05-07T19:07:14;9.88;;;5.50;;
26578;SDS011;14227;47.674;19.320;2023-05-07T19:09:40;10.85;;;5.40;;
26578;SDS011;14227;47.674;19.320;2023-05-07T19:12:06;9.25;;;5.43;;
26578;SDS011;14227;47.674;19.320;2023-05-07T19:14:32;6.43;;;5.32;;
26578;SDS011;14227;47.674;19.320;2023-05-07T19:16:57;10.10;;;5.82;;
26578;SDS011;14227;47.674;19.320;2023-05-07T19:19:24;10.55;;;5.80;;
26578;SDS011;14227;47.674;19.320;2023-05-07T19:21:50;8.25;;;4.97;;
26578;SDS011;14227;47.674;19.320;2023-05-07T19:24:17;8.40;;;5.35;;
26578;SDS011;14227;47.674;19.320;2023-05-07T19:26:42;8.98;;;5.32;;
26578;SDS011;14227;47.674;19.320;2023-05-07T19:29:08;7.32;;;4.85;;
26578;SDS011;14227;47.674;19.320;2023-05-07T19:31:35;14.13;;;5.35;;
26578;SDS011;14227;47.674;19.320;2023-05-07T19:34:00;9.55;;;5.70;;
26578;SDS011;14227;47.674;19.320;2023-05-07T19:36:26;8.38;;;5.47;;
26578;SDS011;14227;47.674;19.320;2023-05-07T19:38:52;8.95;;;5.88;;
26578;SDS011;14227;47.674;19.320;2023-05-07T19:41:21;10.25;;;5.72;;
26578;SDS011;14227;47.674;19.320;2023-05-07T19:43:47;6.50;;;5.05;;
26578;SDS011;14227;47.674;19.320;2023-05-07T19:46:13;10.38;;;5.22;;
26578;SDS011;14227;47.674;19.320;2023-05-07T19:48:40;9.30;;;5.57;;
26578;SDS011;14227;47.674;19.320;2023-05-07T19:51:06;8.50;;;5.07;;
26578;SDS011;14227;47.674;19.320;2023-05-07T19:53:32;9.88;;;5.03;;
26578;SDS011;14227;47.674;19.320;2023-05-07T19:56:05;7.68;;;5.18;;
26578;SDS011;14227;47.674;19.320;2023-05-07T19:58:32;5.88;;;5.13;;
26578;SDS011;14227;47.674;19.320;2023-05-07T20:00:59;6.35;;;4.90;;
26578;SDS011;14227;47.674;19.320;2023-05-07T20:03:28;6.40;;;4.93;;
26578;SDS011;14227;47.674;19.320;2023-05-07T20:05:54;8.80;;;4.82;;
26578;SDS011;14227;47.674;19.320;2023-05-07T20:08:20;6.22;;;4.80;;
26578;SDS011;14227;47.674;19.320;2023-05-07T20:10:47;7.47;;;5.03;;
26578;SDS011;14227;47.674;19.320;2023-05-07T20:13:13;7.15;;;4.88;;
26578;SDS011;14227;47.674;19.320;2023-05-07T20:15:39;10.30;;;5.13;;
26578;SDS011;14227;47.674;19.320;2023-05-07T20:18:05;6.50;;;5.13;;
26578;SDS011;14227;47.674;19.320;2023-05-07T20:20:31;9.88;;;5.95;;
26578;SDS011;14227;47.674;19.320;2023-05-07T20:22:56;8.63;;;5.93;;